sensor_id;sensor_type;location;lat;lon;timestamp;P1;durP1;ratioP1;P2;durP2;ratioP2
81651;SDS011;71061;55.714;37.794;2023-08-20T00:00:27;19.20;;;14.10;;
81651;SDS011;71061;55.714;37.794;2023-08-20T00:02:56;16.50;;;11.65;;
81651;SDS011;71061;55.714;37.794;2023-08-20T00:05:25;18.65;;;13.68;;
81651;SDS011;71061;55.714;37.794;2023-08-20T00:07:50;18.17;;;13.52;;
81651;SDS011;71061;55.714;37.794;2023-08-20T00:10:16;19.08;;;14.32;;
81651;SDS011;71061;55.714;37.794;2023-08-20T00:12:44;17.95;;;14.63;;
81651;SDS011;71061;55.714;37.794;2023-08-20T00:15:10;17.27;;;13.43;;
81651;SDS011;71061;55.714;37.794;2023-08-20T00:17:36;18.90;;;14.25;;
81651;SDS011;71061;55.714;37.794;2023-08-20T00:20:04;21.83;;;13.90;;
81651;SDS011;71061;55.714;37.794;2023-08-20T00:22:36;18.90;;;13.07;;
81651;SDS011;71061;55.714;37.794;2023-08-20T00:25:02;19.52;;;13.38;;
81651;SDS011;71061;55.714;37.794;2023-08-20T00:27:29;20.80;;;13.65;;
81651;SDS011;71061;55.714;37.794;2023-08-20T00:29:55;17.45;;;14.10;;
81651;SDS011;71061;55.714;37.794;2023-08-20T00:32:21;20.17;;;13.73;;
81651;SDS011;71061;55.714;37.794;2023-08-20T00:34:47;18.20;;;14.85;;
81651;SDS011;71061;55.714;37.794;2023-08-20T00:37:12;22.45;;;14.57;;
81651;SDS011;71061;55.714;37.794;2023-08-20T00:39:38;21.50;;;14.65;;
81651;SDS011;71061;55.714;37.794;2023-08-20T00:42:04;22.45;;;15.80;;
81651;SDS011;71061;55.714;37.794;2023-08-20T00:44:30;19.75;;;14.27;;
81651;SDS011;71061;55.714;37.794;2023-08-20T00:46:56;24.00;;;15.20;;
81651;SDS011;71061;55.714;37.794;2023-08-20T00:49:22;22.70;;;16.67;;
81651;SDS011;71061;55.714;37.794;2023-08-20T00:51:49;19.73;;;15.25;;
81651;SDS011;71061;55.714;37.794;2023-08-20T00:54:15;20.10;;;15.27;;
81651;SDS011;71061;55.714;37.794;2023-08-20T00:56:42;20.50;;;15.15;;
81651;SDS011;71061;55.714;37.794;2023-08-20T00:59:07;23.50;;;16.17;;
81651;SDS011;71061;55.714;37.794;2023-08-20T01:01:33;23.17;;;16.38;;
81651;SDS011;71061;55.714;37.794;2023-08-20T01:03:59;23.38;;;15.57;;
81651;SDS011;71061;55.714;37.794;2023-08-20T01:06:36;29.17;;;15.13;;
81651;SDS011;71061;55.714;37.794;2023-08-20T01:09:24;20.67;;;15.32;;
81651;SDS011;71061;55.714;37.794;2023-08-20T01:12:14;22.27;;;16.02;;
81651;SDS011;71061;55.714;37.794;2023-08-20T01:14:40;21.90;;;16.33;;
81651;SDS011;71061;55.714;37.794;2023-08-20T01:17:06;24.52;;;15.10;;
81651;SDS011;71061;55.714;37.794;2023-08-20T01:19:31;19.13;;;14.85;;
81651;SDS011;71061;55.714;37.794;2023-08-20T01:25:07;22.85;;;15.45;;
81651;SDS011;71061;55.714;37.794;2023-08-20T01:30:10;22.02;;;16.05;;
81651;SDS011;71061;55.714;37.794;2023-08-20T01:32:36;20.05;;;15.50;;
81651;SDS011;71061;55.714;37.794;2023-08-20T01:35:03;19.73;;;15.27;;
81651;SDS011;71061;55.714;37.794;2023-08-20T01:37:31;23.38;;;16.50;;
81651;SDS011;71061;55.714;37.794;2023-08-20T01:39:57;22.75;;;15.63;;
81651;SDS011;71061;55.714;37.794;2023-08-20T01:42:22;22.08;;;15.40;;
81651;SDS011;71061;55.714;37.794;2023-08-20T01:44:48;23.00;;;15.98;;
81651;SDS011;71061;55.714;37.794;2023-08-20T01:47:13;22.00;;;16.15;;
81651;SDS011;71061;55.714;37.794;2023-08-20T01:49:39;24.52;;;16.25;;
81651;SDS011;71061;55.714;37.794;2023-08-20T01:52:05;23.83;;;16.83;;
81651;SDS011;71061;55.714;37.794;2023-08-20T01:54:31;25.98;;;17.42;;
81651;SDS011;71061;55.714;37.794;2023-08-20T01:56:56;21.42;;;13.60;;
81651;SDS011;71061;55.714;37.794;2023-08-20T01:59:22;19.40;;;16.35;;
81651;SDS011;71061;55.714;37.794;2023-08-20T02:01:49;21.33;;;15.90;;
81651;SDS011;71061;55.714;37.794;2023-08-20T02:04:15;22.42;;;17.23;;
81651;SDS011;71061;55.714;37.794;2023-08-20T02:06:40;23.77;;;16.92;;
81651;SDS011;71061;55.714;37.794;2023-08-20T02:09:06;20.85;;;16.05;;
81651;SDS011;71061;55.714;37.794;2023-08-20T02:11:31;25.42;;;16.85;;
81651;SDS011;71061;55.714;37.794;2023-08-20T02:14:01;22.73;;;17.45;;
81651;SDS011;71061;55.714;37.794;2023-08-20T02:16:27;24.65;;;18.52;;
81651;SDS011;71061;55.714;37.794;2023-08-20T02:18:53;25.58;;;19.05;;
81651;SDS011;71061;55.714;37.794;2023-08-20T02:21:19;31.95;;;18.50;;
81651;SDS011;71061;55.714;37.794;2023-08-20T02:23:45;25.17;;;19.30;;
81651;SDS011;71061;55.714;37.794;2023-08-20T02:26:11;27.88;;;17.77;;
81651;SDS011;71061;55.714;37.794;2023-08-20T02:28:36;28.67;;;21.40;;
81651;SDS011;71061;55.714;37.794;2023-08-20T02:31:04;28.15;;;19.25;;
81651;SDS011;71061;55.714;37.794;2023-08-20T02:33:30;26.10;;;20.33;;
81651;SDS011;71061;55.714;37.794;2023-08-20T02:36:00;27.42;;;21.27;;
81651;SDS011;71061;55.714;37.794;2023-08-20T02:38:28;26.60;;;19.38;;
81651;SDS011;71061;55.714;37.794;2023-08-20T02:40:54;27.73;;;20.60;;
81651;SDS011;71061;55.714;37.794;2023-08-20T02:43:20;28.65;;;18.52;;
81651;SDS011;71061;55.714;37.794;2023-08-20T02:45:45;29.05;;;19.75;;
81651;SDS011;71061;55.714;37.794;2023-08-20T02:48:12;25.48;;;18.50;;
81651;SDS011;71061;55.714;37.794;2023-08-20T02:50:38;26.42;;;19.15;;
81651;SDS011;71061;55.714;37.794;2023-08-20T02:53:04;25.80;;;19.70;;
81651;SDS011;71061;55.714;37.794;2023-08-20T02:55:31;24.13;;;19.02;;
81651;SDS011;71061;55.714;37.794;2023-08-20T02:57:57;24.40;;;19.35;;
81651;SDS011;71061;55.714;37.794;2023-08-20T03:00:23;24.08;;;18.08;;
81651;SDS011;71061;55.714;37.794;2023-08-20T03:02:48;25.70;;;19.20;;
81651;SDS011;71061;55.714;37.794;2023-08-20T03:05:14;29.35;;;19.80;;
81651;SDS011;71061;55.714;37.794;2023-08-20T03:07:40;25.35;;;16.52;;
81651;SDS011;71061;55.714;37.794;2023-08-20T03:10:06;24.92;;;18.70;;
81651;SDS011;71061;55.714;37.794;2023-08-20T03:12:32;24.27;;;18.15;;
81651;SDS011;71061;55.714;37.794;2023-08-20T03:14:58;26.15;;;18.73;;
81651;SDS011;71061;55.714;37.794;2023-08-20T03:17:24;28.65;;;19.95;;
81651;SDS011;71061;55.714;37.794;2023-08-20T03:19:54;29.00;;;20.70;;
81651;SDS011;71061;55.714;37.794;2023-08-20T03:22:22;29.33;;;20.08;;
81651;SDS011;71061;55.714;37.794;2023-08-20T03:24:48;28.83;;;20.55;;
81651;SDS011;71061;55.714;37.794;2023-08-20T03:27:13;29.77;;;19.65;;
81651;SDS011;71061;55.714;37.794;2023-08-20T03:29:39;24.60;;;19.45;;
81651;SDS011;71061;55.714;37.794;2023-08-20T03:32:05;29.05;;;19.42;;
81651;SDS011;71061;55.714;37.794;2023-08-20T03:34:30;28.77;;;18.70;;
81651;SDS011;71061;55.714;37.794;2023-08-20T03:36:56;27.42;;;18.48;;
81651;SDS011;71061;55.714;37.794;2023-08-20T03:39:22;28.90;;;19.55;;
81651;SDS011;71061;55.714;37.794;2023-08-20T03:41:47;30.17;;;19.48;;
81651;SDS011;71061;55.714;37.794;2023-08-20T03:44:14;30.38;;;19.80;;
81651;SDS011;71061;55.714;37.794;2023-08-20T03:46:40;24.50;;;18.05;;
81651;SDS011;71061;55.714;37.794;2023-08-20T03:49:06;28.33;;;20.67;;
81651;SDS011;71061;55.714;37.794;2023-08-20T03:51:32;25.48;;;17.85;;
81651;SDS011;71061;55.714;37.794;2023-08-20T03:53:57;20.88;;;16.13;;
81651;SDS011;71061;55.714;37.794;2023-08-20T03:56:23;25.10;;;16.42;;
81651;SDS011;71061;55.714;37.794;2023-08-20T03:58:49;30.80;;;17.95;;
81651;SDS011;71061;55.714;37.794;2023-08-20T04:01:15;26.30;;;18.73;;
81651;SDS011;71061;55.714;37.794;2023-08-20T04:03:41;30.63;;;21.15;;
81651;SDS011;71061;55.714;37.794;2023-08-20T04:06:07;40.08;;;25.10;;
81651;SDS011;71061;55.714;37.794;2023-08-20T04:08:33;32.45;;;21.65;;
81651;SDS011;71061;55.714;37.794;2023-08-20T04:10:58;27.30;;;21.35;;
81651;SDS011;71061;55.714;37.794;2023-08-20T04:13:24;34.15;;;21.02;;
81651;SDS011;71061;55.714;37.794;2023-08-20T04:15:51;29.58;;;19.63;;
81651;SDS011;71061;55.714;37.794;2023-08-20T04:18:17;27.25;;;21.17;;
81651;SDS011;71061;55.714;37.794;2023-08-20T04:20:43;29.90;;;22.30;;
81651;SDS011;71061;55.714;37.794;2023-08-20T04:23:08;33.42;;;22.50;;
81651;SDS011;71061;55.714;37.794;2023-08-20T04:25:34;30.63;;;22.08;;
81651;SDS011;71061;55.714;37.794;2023-08-20T04:28:00;28.35;;;22.40;;
81651;SDS011;71061;55.714;37.794;2023-08-20T04:30:25;28.73;;;22.77;;
81651;SDS011;71061;55.714;37.794;2023-08-20T04:32:51;28.23;;;22.45;;
81651;SDS011;71061;55.714;37.794;2023-08-20T04:35:17;29.75;;;23.02;;
81651;SDS011;71061;55.714;37.794;2023-08-20T04:37:43;33.65;;;24.38;;
81651;SDS011;71061;55.714;37.794;2023-08-20T04:40:08;32.08;;;23.58;;
81651;SDS011;71061;55.714;37.794;2023-08-20T04:42:34;31.63;;;23.58;;
81651;SDS011;71061;55.714;37.794;2023-08-20T04:45:00;30.35;;;22.58;;
81651;SDS011;71061;55.714;37.794;2023-08-20T04:47:27;34.63;;;23.85;;
81651;SDS011;71061;55.714;37.794;2023-08-20T04:49:53;37.30;;;24.48;;
81651;SDS011;71061;55.714;37.794;2023-08-20T04:52:19;30.95;;;21.45;;
81651;SDS011;71061;55.714;37.794;2023-08-20T04:54:46;27.08;;;21.20;;
81651;SDS011;71061;55.714;37.794;2023-08-20T04:57:12;31.70;;;22.40;;
81651;SDS011;71061;55.714;37.794;2023-08-20T04:59:39;27.83;;;20.67;;
81651;SDS011;71061;55.714;37.794;2023-08-20T05:02:25;28.38;;;22.00;;
81651;SDS011;71061;55.714;37.794;2023-08-20T05:04:55;28.35;;;20.52;;
81651;SDS011;71061;55.714;37.794;2023-08-20T05:07:21;28.52;;;22.25;;
81651;SDS011;71061;55.714;37.794;2023-08-20T05:09:49;30.92;;;22.30;;
81651;SDS011;71061;55.714;37.794;2023-08-20T05:12:15;27.20;;;21.23;;
81651;SDS011;71061;55.714;37.794;2023-08-20T05:14:40;25.52;;;19.60;;
81651;SDS011;71061;55.714;37.794;2023-08-20T05:17:06;22.80;;;19.52;;
81651;SDS011;71061;55.714;37.794;2023-08-20T05:19:32;24.33;;;17.90;;
81651;SDS011;71061;55.714;37.794;2023-08-20T05:21:58;19.73;;;15.23;;
81651;SDS011;71061;55.714;37.794;2023-08-20T05:24:27;23.95;;;16.63;;
81651;SDS011;71061;55.714;37.794;2023-08-20T05:29:45;17.40;;;12.68;;
81651;SDS011;71061;55.714;37.794;2023-08-20T05:32:11;18.42;;;14.25;;
81651;SDS011;71061;55.714;37.794;2023-08-20T05:34:38;18.38;;;13.77;;
81651;SDS011;71061;55.714;37.794;2023-08-20T05:37:04;17.83;;;13.25;;
81651;SDS011;71061;55.714;37.794;2023-08-20T05:39:30;19.33;;;14.27;;
81651;SDS011;71061;55.714;37.794;2023-08-20T05:41:58;16.88;;;12.88;;
81651;SDS011;71061;55.714;37.794;2023-08-20T05:44:25;20.67;;;15.18;;
81651;SDS011;71061;55.714;37.794;2023-08-20T05:46:51;21.73;;;14.63;;
81651;SDS011;71061;55.714;37.794;2023-08-20T05:49:19;21.95;;;13.55;;
81651;SDS011;71061;55.714;37.794;2023-08-20T05:51:45;17.20;;;14.70;;
81651;SDS011;71061;55.714;37.794;2023-08-20T05:54:11;18.05;;;14.15;;
81651;SDS011;71061;55.714;37.794;2023-08-20T05:56:37;18.73;;;14.30;;
81651;SDS011;71061;55.714;37.794;2023-08-20T05:59:03;18.67;;;14.93;;
81651;SDS011;71061;55.714;37.794;2023-08-20T06:01:29;19.75;;;15.35;;
81651;SDS011;71061;55.714;37.794;2023-08-20T06:03:55;21.15;;;15.63;;
81651;SDS011;71061;55.714;37.794;2023-08-20T06:06:21;22.02;;;16.08;;
81651;SDS011;71061;55.714;37.794;2023-08-20T06:08:47;18.08;;;14.20;;
81651;SDS011;71061;55.714;37.794;2023-08-20T06:11:13;19.50;;;14.35;;
81651;SDS011;71061;55.714;37.794;2023-08-20T06:13:39;23.13;;;16.83;;
81651;SDS011;71061;55.714;37.794;2023-08-20T06:16:04;19.23;;;15.07;;
81651;SDS011;71061;55.714;37.794;2023-08-20T06:18:30;24.10;;;16.75;;
81651;SDS011;71061;55.714;37.794;2023-08-20T06:20:56;21.38;;;16.02;;
81651;SDS011;71061;55.714;37.794;2023-08-20T06:23:21;22.33;;;17.35;;
81651;SDS011;71061;55.714;37.794;2023-08-20T06:25:47;20.80;;;15.07;;
81651;SDS011;71061;55.714;37.794;2023-08-20T06:28:12;18.85;;;13.60;;
81651;SDS011;71061;55.714;37.794;2023-08-20T06:30:38;20.38;;;14.50;;
81651;SDS011;71061;55.714;37.794;2023-08-20T06:33:04;17.45;;;13.05;;
81651;SDS011;71061;55.714;37.794;2023-08-20T06:35:30;20.30;;;16.83;;
81651;SDS011;71061;55.714;37.794;2023-08-20T06:37:55;26.27;;;18.33;;
81651;SDS011;71061;55.714;37.794;2023-08-20T06:40:21;42.95;;;34.53;;
81651;SDS011;71061;55.714;37.794;2023-08-20T06:42:47;55.13;;;42.97;;
81651;SDS011;71061;55.714;37.794;2023-08-20T06:45:14;56.28;;;40.00;;
81651;SDS011;71061;55.714;37.794;2023-08-20T06:47:39;44.33;;;30.33;;
81651;SDS011;71061;55.714;37.794;2023-08-20T06:50:05;36.10;;;24.30;;
81651;SDS011;71061;55.714;37.794;2023-08-20T06:52:31;37.88;;;25.90;;
81651;SDS011;71061;55.714;37.794;2023-08-20T06:54:57;31.63;;;22.20;;
81651;SDS011;71061;55.714;37.794;2023-08-20T06:57:23;29.70;;;19.67;;
81651;SDS011;71061;55.714;37.794;2023-08-20T06:59:49;19.67;;;14.10;;
81651;SDS011;71061;55.714;37.794;2023-08-20T07:02:14;20.05;;;14.57;;
81651;SDS011;71061;55.714;37.794;2023-08-20T07:04:40;20.10;;;13.77;;
81651;SDS011;71061;55.714;37.794;2023-08-20T07:07:06;14.85;;;11.13;;
81651;SDS011;71061;55.714;37.794;2023-08-20T07:09:31;16.70;;;10.45;;
81651;SDS011;71061;55.714;37.794;2023-08-20T07:11:57;17.15;;;11.45;;
81651;SDS011;71061;55.714;37.794;2023-08-20T07:14:23;15.80;;;11.48;;
81651;SDS011;71061;55.714;37.794;2023-08-20T07:16:49;14.20;;;10.50;;
81651;SDS011;71061;55.714;37.794;2023-08-20T07:19:14;15.73;;;11.63;;
81651;SDS011;71061;55.714;37.794;2023-08-20T07:21:40;14.40;;;11.60;;
81651;SDS011;71061;55.714;37.794;2023-08-20T07:24:06;15.02;;;12.73;;
81651;SDS011;71061;55.714;37.794;2023-08-20T07:26:32;17.75;;;11.68;;
81651;SDS011;71061;55.714;37.794;2023-08-20T07:28:57;16.95;;;11.50;;
81651;SDS011;71061;55.714;37.794;2023-08-20T07:31:24;13.02;;;10.65;;
81651;SDS011;71061;55.714;37.794;2023-08-20T07:33:50;13.82;;;10.25;;
81651;SDS011;71061;55.714;37.794;2023-08-20T07:36:17;16.38;;;11.02;;
81651;SDS011;71061;55.714;37.794;2023-08-20T07:38:44;14.75;;;10.30;;
81651;SDS011;71061;55.714;37.794;2023-08-20T07:41:10;12.48;;;9.07;;
81651;SDS011;71061;55.714;37.794;2023-08-20T07:43:38;13.73;;;9.18;;
81651;SDS011;71061;55.714;37.794;2023-08-20T07:46:05;13.70;;;8.73;;
81651;SDS011;71061;55.714;37.794;2023-08-20T07:48:31;11.77;;;8.40;;
81651;SDS011;71061;55.714;37.794;2023-08-20T07:50:56;12.30;;;7.88;;
81651;SDS011;71061;55.714;37.794;2023-08-20T07:53:22;11.50;;;8.07;;
81651;SDS011;71061;55.714;37.794;2023-08-20T07:55:48;11.60;;;8.00;;
81651;SDS011;71061;55.714;37.794;2023-08-20T07:58:14;9.50;;;7.20;;
81651;SDS011;71061;55.714;37.794;2023-08-20T08:00:40;10.27;;;7.35;;
81651;SDS011;71061;55.714;37.794;2023-08-20T08:03:06;9.10;;;6.93;;
81651;SDS011;71061;55.714;37.794;2023-08-20T08:05:31;10.05;;;6.60;;
81651;SDS011;71061;55.714;37.794;2023-08-20T08:07:57;7.90;;;5.90;;
81651;SDS011;71061;55.714;37.794;2023-08-20T08:10:23;8.40;;;7.05;;
81651;SDS011;71061;55.714;37.794;2023-08-20T08:12:48;9.20;;;6.32;;
81651;SDS011;71061;55.714;37.794;2023-08-20T08:15:14;11.70;;;6.05;;
81651;SDS011;71061;55.714;37.794;2023-08-20T08:17:40;9.40;;;5.97;;
81651;SDS011;71061;55.714;37.794;2023-08-20T08:20:06;12.68;;;6.70;;
81651;SDS011;71061;55.714;37.794;2023-08-20T08:22:32;12.43;;;7.32;;
81651;SDS011;71061;55.714;37.794;2023-08-20T08:24:57;8.95;;;6.15;;
81651;SDS011;71061;55.714;37.794;2023-08-20T08:27:23;9.85;;;5.80;;
81651;SDS011;71061;55.714;37.794;2023-08-20T08:29:50;9.13;;;6.30;;
81651;SDS011;71061;55.714;37.794;2023-08-20T08:32:16;9.32;;;6.38;;
81651;SDS011;71061;55.714;37.794;2023-08-20T08:34:42;10.95;;;6.30;;
81651;SDS011;71061;55.714;37.794;2023-08-20T08:37:08;10.57;;;6.88;;
81651;SDS011;71061;55.714;37.794;2023-08-20T08:39:34;11.20;;;6.43;;
81651;SDS011;71061;55.714;37.794;2023-08-20T08:42:00;12.43;;;7.10;;
81651;SDS011;71061;55.714;37.794;2023-08-20T08:44:31;10.75;;;6.57;;
81651;SDS011;71061;55.714;37.794;2023-08-20T08:46:58;9.05;;;6.35;;
81651;SDS011;71061;55.714;37.794;2023-08-20T08:49:24;11.95;;;5.75;;
81651;SDS011;71061;55.714;37.794;2023-08-20T08:52:11;8.38;;;5.60;;
81651;SDS011;71061;55.714;37.794;2023-08-20T08:54:37;8.02;;;5.45;;
81651;SDS011;71061;55.714;37.794;2023-08-20T08:57:03;9.23;;;5.80;;
81651;SDS011;71061;55.714;37.794;2023-08-20T08:59:29;7.75;;;5.00;;
81651;SDS011;71061;55.714;37.794;2023-08-20T09:01:54;7.72;;;4.88;;
81651;SDS011;71061;55.714;37.794;2023-08-20T09:04:22;6.80;;;5.93;;
81651;SDS011;71061;55.714;37.794;2023-08-20T09:06:49;8.35;;;5.10;;
81651;SDS011;71061;55.714;37.794;2023-08-20T09:09:26;6.57;;;5.13;;
81651;SDS011;71061;55.714;37.794;2023-08-20T09:11:55;10.05;;;5.72;;
81651;SDS011;71061;55.714;37.794;2023-08-20T09:14:28;7.18;;;5.30;;
81651;SDS011;71061;55.714;37.794;2023-08-20T09:16:57;8.23;;;5.35;;
81651;SDS011;71061;55.714;37.794;2023-08-20T09:19:23;8.63;;;4.85;;
81651;SDS011;71061;55.714;37.794;2023-08-20T09:21:49;7.40;;;4.70;;
81651;SDS011;71061;55.714;37.794;2023-08-20T09:24:25;7.22;;;4.78;;
81651;SDS011;71061;55.714;37.794;2023-08-20T09:26:56;7.65;;;5.32;;
81651;SDS011;71061;55.714;37.794;2023-08-20T09:29:23;7.95;;;4.80;;
81651;SDS011;71061;55.714;37.794;2023-08-20T09:31:49;7.82;;;4.72;;
81651;SDS011;71061;55.714;37.794;2023-08-20T09:34:15;9.40;;;4.70;;
81651;SDS011;71061;55.714;37.794;2023-08-20T09:36:41;8.98;;;4.95;;
81651;SDS011;71061;55.714;37.794;2023-08-20T09:39:08;7.70;;;4.78;;
81651;SDS011;71061;55.714;37.794;2023-08-20T09:41:34;8.57;;;5.05;;
81651;SDS011;71061;55.714;37.794;2023-08-20T09:44:01;6.88;;;4.63;;
81651;SDS011;71061;55.714;37.794;2023-08-20T09:46:27;7.78;;;5.13;;
81651;SDS011;71061;55.714;37.794;2023-08-20T09:48:57;6.97;;;4.90;;
81651;SDS011;71061;55.714;37.794;2023-08-20T09:51:24;7.30;;;4.35;;
81651;SDS011;71061;55.714;37.794;2023-08-20T09:54:00;5.32;;;3.88;;
81651;SDS011;71061;55.714;37.794;2023-08-20T09:56:29;6.93;;;4.65;;
81651;SDS011;71061;55.714;37.794;2023-08-20T09:58:57;8.73;;;4.45;;
81651;SDS011;71061;55.714;37.794;2023-08-20T10:01:23;7.15;;;4.28;;
81651;SDS011;71061;55.714;37.794;2023-08-20T10:03:49;6.68;;;4.45;;
81651;SDS011;71061;55.714;37.794;2023-08-20T10:06:15;9.13;;;5.05;;
81651;SDS011;71061;55.714;37.794;2023-08-20T10:08:41;7.28;;;4.30;;
81651;SDS011;71061;55.714;37.794;2023-08-20T10:11:06;6.05;;;3.90;;
81651;SDS011;71061;55.714;37.794;2023-08-20T10:13:32;6.32;;;4.03;;
81651;SDS011;71061;55.714;37.794;2023-08-20T10:15:58;6.30;;;4.80;;
81651;SDS011;71061;55.714;37.794;2023-08-20T10:18:24;9.77;;;5.03;;
81651;SDS011;71061;55.714;37.794;2023-08-20T10:20:50;6.80;;;4.78;;
81651;SDS011;71061;55.714;37.794;2023-08-20T10:23:19;5.50;;;4.15;;
81651;SDS011;71061;55.714;37.794;2023-08-20T10:25:46;10.02;;;5.82;;
81651;SDS011;71061;55.714;37.794;2023-08-20T10:28:13;6.63;;;4.22;;
81651;SDS011;71061;55.714;37.794;2023-08-20T10:33:34;12.82;;;4.72;;
81651;SDS011;71061;55.714;37.794;2023-08-20T10:36:17;6.50;;;4.47;;
81651;SDS011;71061;55.714;37.794;2023-08-20T10:38:45;12.23;;;4.63;;
81651;SDS011;71061;55.714;37.794;2023-08-20T10:41:11;6.47;;;4.32;;
81651;SDS011;71061;55.714;37.794;2023-08-20T10:43:38;9.18;;;5.55;;
81651;SDS011;71061;55.714;37.794;2023-08-20T10:48:46;8.98;;;5.40;;
81651;SDS011;71061;55.714;37.794;2023-08-20T10:51:19;7.28;;;4.88;;
81651;SDS011;71061;55.714;37.794;2023-08-20T10:56:44;7.53;;;4.50;;
81651;SDS011;71061;55.714;37.794;2023-08-20T10:59:14;7.90;;;5.57;;
81651;SDS011;71061;55.714;37.794;2023-08-20T11:01:53;6.78;;;4.45;;
81651;SDS011;71061;55.714;37.794;2023-08-20T11:04:21;8.40;;;4.97;;
81651;SDS011;71061;55.714;37.794;2023-08-20T11:06:50;7.38;;;4.88;;
81651;SDS011;71061;55.714;37.794;2023-08-20T11:09:21;7.80;;;5.05;;
81651;SDS011;71061;55.714;37.794;2023-08-20T11:11:47;8.93;;;5.05;;
81651;SDS011;71061;55.714;37.794;2023-08-20T11:14:13;9.57;;;5.95;;
81651;SDS011;71061;55.714;37.794;2023-08-20T11:16:40;6.95;;;5.57;;
81651;SDS011;71061;55.714;37.794;2023-08-20T11:19:06;8.30;;;5.22;;
81651;SDS011;71061;55.714;37.794;2023-08-20T11:21:37;7.03;;;5.13;;
81651;SDS011;71061;55.714;37.794;2023-08-20T11:24:04;12.43;;;5.97;;
81651;SDS011;71061;55.714;37.794;2023-08-20T11:26:32;7.63;;;5.28;;
81651;SDS011;71061;55.714;37.794;2023-08-20T11:28:58;6.93;;;5.00;;
81651;SDS011;71061;55.714;37.794;2023-08-20T11:31:23;9.68;;;5.15;;
81651;SDS011;71061;55.714;37.794;2023-08-20T11:33:50;7.68;;;5.25;;
81651;SDS011;71061;55.714;37.794;2023-08-20T11:36:16;8.38;;;6.10;;
81651;SDS011;71061;55.714;37.794;2023-08-20T11:38:42;7.28;;;4.60;;
81651;SDS011;71061;55.714;37.794;2023-08-20T11:41:15;6.82;;;4.43;;
81651;SDS011;71061;55.714;37.794;2023-08-20T11:43:41;9.65;;;5.78;;
81651;SDS011;71061;55.714;37.794;2023-08-20T11:46:12;9.38;;;6.80;;
81651;SDS011;71061;55.714;37.794;2023-08-20T11:48:39;9.38;;;4.85;;
81651;SDS011;71061;55.714;37.794;2023-08-20T11:51:04;9.20;;;5.05;;
81651;SDS011;71061;55.714;37.794;2023-08-20T11:53:30;8.30;;;7.07;;
81651;SDS011;71061;55.714;37.794;2023-08-20T11:55:56;7.85;;;4.28;;
81651;SDS011;71061;55.714;37.794;2023-08-20T11:58:21;8.90;;;5.35;;
81651;SDS011;71061;55.714;37.794;2023-08-20T12:00:48;9.00;;;6.25;;
81651;SDS011;71061;55.714;37.794;2023-08-20T12:03:17;7.55;;;5.25;;
81651;SDS011;71061;55.714;37.794;2023-08-20T12:05:43;8.77;;;5.43;;
81651;SDS011;71061;55.714;37.794;2023-08-20T12:08:14;10.18;;;5.57;;
81651;SDS011;71061;55.714;37.794;2023-08-20T12:10:41;8.63;;;6.40;;
81651;SDS011;71061;55.714;37.794;2023-08-20T12:13:08;9.13;;;6.00;;
81651;SDS011;71061;55.714;37.794;2023-08-20T12:15:34;8.90;;;5.70;;
81651;SDS011;71061;55.714;37.794;2023-08-20T12:18:01;8.00;;;6.05;;
81651;SDS011;71061;55.714;37.794;2023-08-20T12:20:32;8.23;;;5.65;;
81651;SDS011;71061;55.714;37.794;2023-08-20T12:23:01;10.15;;;6.15;;
81651;SDS011;71061;55.714;37.794;2023-08-20T12:25:30;7.60;;;4.55;;
81651;SDS011;71061;55.714;37.794;2023-08-20T12:27:57;6.25;;;3.60;;
81651;SDS011;71061;55.714;37.794;2023-08-20T12:30:23;7.50;;;3.90;;
81651;SDS011;71061;55.714;37.794;2023-08-20T12:32:48;7.35;;;3.45;;
81651;SDS011;71061;55.714;37.794;2023-08-20T12:35:14;7.05;;;3.65;;
81651;SDS011;71061;55.714;37.794;2023-08-20T12:37:40;6.90;;;2.85;;
81651;SDS011;71061;55.714;37.794;2023-08-20T12:40:06;8.13;;;4.68;;
81651;SDS011;71061;55.714;37.794;2023-08-20T12:42:36;7.45;;;3.50;;
81651;SDS011;71061;55.714;37.794;2023-08-20T12:45:04;5.75;;;3.55;;
81651;SDS011;71061;55.714;37.794;2023-08-20T12:47:31;7.35;;;3.25;;
81651;SDS011;71061;55.714;37.794;2023-08-20T12:49:57;10.23;;;5.63;;
81651;SDS011;71061;55.714;37.794;2023-08-20T12:52:22;7.00;;;4.78;;
81651;SDS011;71061;55.714;37.794;2023-08-20T12:54:48;9.57;;;4.18;;
81651;SDS011;71061;55.714;37.794;2023-08-20T12:57:14;8.05;;;4.05;;
81651;SDS011;71061;55.714;37.794;2023-08-20T12:59:39;7.40;;;3.42;;
81651;SDS011;71061;55.714;37.794;2023-08-20T13:02:05;6.05;;;3.22;;
81651;SDS011;71061;55.714;37.794;2023-08-20T13:04:31;9.68;;;3.55;;
81651;SDS011;71061;55.714;37.794;2023-08-20T13:06:57;8.55;;;3.97;;
81651;SDS011;71061;55.714;37.794;2023-08-20T13:09:23;9.45;;;4.70;;
81651;SDS011;71061;55.714;37.794;2023-08-20T13:11:49;9.18;;;4.57;;
81651;SDS011;71061;55.714;37.794;2023-08-20T13:14:15;7.05;;;3.65;;
81651;SDS011;71061;55.714;37.794;2023-08-20T13:16:40;11.60;;;4.82;;
81651;SDS011;71061;55.714;37.794;2023-08-20T13:19:06;7.22;;;3.95;;
81651;SDS011;71061;55.714;37.794;2023-08-20T13:21:33;11.32;;;4.90;;
81651;SDS011;71061;55.714;37.794;2023-08-20T13:23:58;8.88;;;4.35;;
81651;SDS011;71061;55.714;37.794;2023-08-20T13:26:24;6.47;;;3.85;;
81651;SDS011;71061;55.714;37.794;2023-08-20T13:28:50;8.65;;;4.30;;
81651;SDS011;71061;55.714;37.794;2023-08-20T13:31:16;7.57;;;3.78;;
81651;SDS011;71061;55.714;37.794;2023-08-20T13:33:41;8.15;;;4.15;;
81651;SDS011;71061;55.714;37.794;2023-08-20T13:36:07;8.13;;;4.88;;
81651;SDS011;71061;55.714;37.794;2023-08-20T13:38:33;8.13;;;4.20;;
81651;SDS011;71061;55.714;37.794;2023-08-20T13:40:58;8.93;;;5.55;;
81651;SDS011;71061;55.714;37.794;2023-08-20T13:43:24;9.93;;;4.93;;
81651;SDS011;71061;55.714;37.794;2023-08-20T13:45:50;9.98;;;5.25;;
81651;SDS011;71061;55.714;37.794;2023-08-20T13:48:15;9.40;;;5.57;;
81651;SDS011;71061;55.714;37.794;2023-08-20T13:50:41;13.57;;;7.15;;
81651;SDS011;71061;55.714;37.794;2023-08-20T13:53:07;13.20;;;7.63;;
81651;SDS011;71061;55.714;37.794;2023-08-20T13:55:34;13.05;;;6.18;;
81651;SDS011;71061;55.714;37.794;2023-08-20T13:57:59;10.65;;;6.72;;
81651;SDS011;71061;55.714;37.794;2023-08-20T14:00:25;10.60;;;5.32;;
81651;SDS011;71061;55.714;37.794;2023-08-20T14:02:51;11.52;;;7.07;;
81651;SDS011;71061;55.714;37.794;2023-08-20T14:05:17;14.10;;;6.78;;
81651;SDS011;71061;55.714;37.794;2023-08-20T14:07:44;10.18;;;6.28;;
81651;SDS011;71061;55.714;37.794;2023-08-20T14:10:09;9.77;;;5.47;;
81651;SDS011;71061;55.714;37.794;2023-08-20T14:12:35;11.00;;;6.22;;
81651;SDS011;71061;55.714;37.794;2023-08-20T14:15:01;9.98;;;5.40;;
81651;SDS011;71061;55.714;37.794;2023-08-20T14:17:31;10.85;;;6.00;;
81651;SDS011;71061;55.714;37.794;2023-08-20T14:19:56;12.55;;;7.47;;
81651;SDS011;71061;55.714;37.794;2023-08-20T14:22:22;9.73;;;6.60;;
81651;SDS011;71061;55.714;37.794;2023-08-20T14:24:48;10.88;;;7.10;;
81651;SDS011;71061;55.714;37.794;2023-08-20T14:27:14;11.90;;;7.97;;
81651;SDS011;71061;55.714;37.794;2023-08-20T14:29:40;11.48;;;6.78;;
81651;SDS011;71061;55.714;37.794;2023-08-20T14:32:06;12.48;;;7.82;;